Terminal Aerodrome Forecast
Issued by NWS Raleigh/Durham, NC

Home | Current Version | Previous Version | Text Only | Print | Product List | Glossary On
Versions: 1 2 3 4 5 6 7 8 9 10 11 12 13 14 15 16 17 18 19
000
FTUS42 KRAH 231734 AAC
TAFRDU
TAF AMD
KRDU 231734Z 2318/2418 23016G34KT P6SM FEW250
     FM232300 29009G18KT P6SM FEW250
     FM240100 30007KT P6SM FEW060
     FM241100 00000KT P6SM SKC
     FM241500 29008KT P6SM FEW200=

USA.gov is the U.S. government's official web portal to all federal, state and local government web resources and services.